Time;durP1;ratioP1;P1;durP2;ratioP2;P2;SDS_P1;SDS_P2;PMS_P1;PMS_P2;Temp;Humidity;BMP_temperature;BMP_pressure;BME280_temperature;BME280_humidity;BME280_pressure;Samples;Min_cycle;Max_cycle;Signal;HPM_P1;HPM_P2
2022/07/20 00:01:03;;;;;;;58.53;37.17;;;25.20;99.90;;;;;;5093578;28;20024;-75
2022/07/20 00:03:30;;;;;;;60.55;41.03;;;25.20;99.90;;;;;;5096039;28;20052;-74
2022/07/20 00:05:56;;;;;;;69.60;44.60;;;25.10;99.90;;;;;;5090272;28;20412;-75
2022/07/20 00:11:20;;;;;;;73.85;49.88;;;25.10;99.90;;;;;;5088457;28;20036;-74
2022/07/20 00:13:47;;;;;;;76.55;50.90;;;25.00;99.90;;;;;;5095822;28;20037;-74
2022/07/20 00:16:13;;;;;;;75.45;52.13;;;24.90;99.90;;;;;;5084882;28;20395;-75
2022/07/20 00:18:39;;;;;;;77.82;50.85;;;24.80;99.90;;;;;;5084910;28;20032;-75
2022/07/20 00:21:05;;;;;;;66.18;45.92;;;24.80;99.90;;;;;;5091653;28;20016;-74
2022/07/20 00:23:31;;;;;;;69.20;41.00;;;24.70;99.90;;;;;;5081811;28;20031;-74
2022/07/20 00:25:57;;;;;;;66.60;39.85;;;24.70;99.90;;;;;;5089820;28;20016;-74
2022/07/20 00:28:23;;;;;;;59.00;39.95;;;24.60;99.90;;;;;;5098704;28;20020;-74
2022/07/20 00:30:48;;;;;;;53.28;37.17;;;24.60;99.90;;;;;;5098057;28;20081;-74
2022/07/20 00:33:14;;;;;;;47.25;30.77;;;24.50;99.90;;;;;;5094387;28;20408;-75
2022/07/20 00:35:40;;;;;;;41.72;28.05;;;24.50;99.90;;;;;;5099388;28;20054;-75
2022/07/20 00:38:06;;;;;;;47.33;28.33;;;24.50;99.90;;;;;;5099352;28;20051;-75
2022/07/20 00:40:32;;;;;;;46.08;26.67;;;24.40;99.90;;;;;;5098072;28;20024;-74
2022/07/20 00:42:58;;;;;;;45.88;27.08;;;24.40;99.90;;;;;;5095555;28;20051;-75
2022/07/20 00:45:23;;;;;;;39.65;25.67;;;24.40;99.90;;;;;;5094117;28;20020;-75
2022/07/20 00:47:51;;;;;;;46.13;27.73;;;24.40;99.90;;;;;;5088780;28;20040;-74
2022/07/20 00:50:17;;;;;;;41.75;29.05;;;24.30;99.90;;;;;;5090619;28;20349;-74
2022/07/20 00:52:43;;;;;;;47.15;29.42;;;24.30;99.90;;;;;;5094118;28;20045;-75
2022/07/20 00:55:10;;;;;;;48.20;31.05;;;24.30;99.90;;;;;;5093964;28;20182;-74
2022/07/20 00:57:36;;;;;;;43.35;32.00;;;24.20;99.90;;;;;;5084906;28;20032;-74
2022/07/20 01:00:06;;;;;;;50.45;32.35;;;24.20;99.90;;;;;;5082571;28;20044;-74
2022/07/20 01:02:33;;;;;;;56.30;34.38;;;24.20;99.90;;;;;;5082416;28;20024;-75
2022/07/20 01:04:59;;;;;;;51.90;33.65;;;24.10;99.90;;;;;;5090634;28;20028;-75
2022/07/20 01:07:25;;;;;;;43.70;32.88;;;24.10;99.90;;;;;;5083375;28;20085;-75
2022/07/20 01:09:51;;;;;;;49.33;32.60;;;24.10;99.90;;;;;;5096355;28;20122;-75
2022/07/20 01:12:17;;;;;;;51.35;32.28;;;24.10;99.90;;;;;;5094896;28;20024;-75
2022/07/20 01:14:43;;;;;;;48.55;31.20;;;24.10;99.90;;;;;;5095649;28;20658;-74
2022/07/20 01:17:10;;;;;;;40.28;30.60;;;24.00;99.90;;;;;;5090106;28;20031;-75
2022/07/20 01:19:36;;;;;;;53.45;27.27;;;24.00;99.90;;;;;;5097571;28;20107;-74
2022/07/20 01:22:02;;;;;;;38.63;23.73;;;24.00;99.90;;;;;;5087374;28;20056;-75
2022/07/20 01:24:27;;;;;;;30.55;20.45;;;23.90;99.90;;;;;;5096074;28;20020;-74
2022/07/20 01:26:53;;;;;;;28.08;17.38;;;23.80;99.90;;;;;;5093094;28;20024;-75
2022/07/20 01:29:19;;;;;;;33.35;17.60;;;23.80;99.90;;;;;;5086214;28;20047;-75
2022/07/20 01:31:45;;;;;;;26.77;17.33;;;23.70;99.90;;;;;;5083166;28;20031;-74
2022/07/20 01:34:11;;;;;;;33.72;18.05;;;23.70;99.90;;;;;;5091736;28;20016;-75
2022/07/20 01:36:37;;;;;;;22.20;16.58;;;23.60;99.90;;;;;;5081382;28;20025;-75
2022/07/20 01:39:03;;;;;;;26.02;15.60;;;23.50;99.90;;;;;;5079351;28;20020;-75
2022/07/20 01:41:29;;;;;;;30.48;18.38;;;23.50;99.90;;;;;;5095824;28;20107;-74
2022/07/20 01:43:55;;;;;;;32.50;18.77;;;23.50;99.90;;;;;;5096768;28;20044;-74
2022/07/20 01:46:21;;;;;;;26.13;16.25;;;23.50;99.90;;;;;;5092846;28;20032;-75
2022/07/20 01:48:46;;;;;;;28.48;16.80;;;23.50;99.90;;;;;;5096522;28;20020;-75
2022/07/20 01:51:12;;;;;;;24.98;16.13;;;23.50;99.90;;;;;;5092496;28;20458;-74
2022/07/20 01:53:38;;;;;;;29.50;18.35;;;23.50;99.90;;;;;;5092740;28;20016;-74
2022/07/20 01:56:04;;;;;;;31.15;16.60;;;23.50;99.90;;;;;;5087410;28;20538;-74
2022/07/20 01:58:30;;;;;;;30.50;15.05;;;23.50;99.90;;;;;;5088938;28;20073;-74
2022/07/20 02:00:55;;;;;;;24.85;16.77;;;23.40;99.90;;;;;;5091986;28;20507;-75
2022/07/20 02:03:21;;;;;;;28.13;17.70;;;23.40;99.90;;;;;;5092210;28;20024;-75
2022/07/20 02:05:47;;;;;;;28.52;15.70;;;23.40;99.90;;;;;;5083882;28;20032;-75
2022/07/20 02:08:13;;;;;;;23.90;15.02;;;23.40;99.90;;;;;;5090785;28;20107;-74
2022/07/20 02:10:39;;;;;;;30.35;15.45;;;23.30;99.90;;;;;;5081666;28;20104;-75
2022/07/20 02:13:05;;;;;;;26.30;15.38;;;23.30;99.90;;;;;;5078830;28;20020;-75
2022/07/20 02:18:15;;;;;;;34.85;15.85;;;23.20;99.90;;;;;;5089173;28;20027;-74
2022/07/20 02:20:42;;;;;;;23.08;14.75;;;23.20;99.90;;;;;;5093731;28;20029;-74
2022/07/20 02:23:10;;;;;;;30.90;14.65;;;23.20;99.90;;;;;;5093264;28;20028;-75
2022/07/20 02:25:37;;;;;;;27.10;14.88;;;23.10;99.90;;;;;;5090283;28;20028;-75
2022/07/20 02:28:06;;;;;;;27.08;15.05;;;23.10;99.90;;;;;;5095443;28;20081;-74
2022/07/20 02:30:33;;;;;;;25.23;14.65;;;23.10;99.90;;;;;;5093192;28;20104;-74
2022/07/20 02:33:01;;;;;;;24.90;14.43;;;23.10;99.90;;;;;;5088579;28;20016;-74
2022/07/20 02:35:27;;;;;;;26.35;14.18;;;23.10;99.90;;;;;;5083664;28;20111;-75
2022/07/20 02:37:53;;;;;;;19.83;14.30;;;23.00;99.90;;;;;;5087291;28;20464;-75
2022/07/20 02:40:18;;;;;;;24.95;13.43;;;23.00;99.90;;;;;;5081584;28;20048;-74
2022/07/20 02:42:44;;;;;;;21.75;13.98;;;23.00;99.90;;;;;;5095377;28;20020;-74
2022/07/20 02:45:10;;;;;;;24.20;13.30;;;23.00;99.90;;;;;;5095860;28;20020;-75
2022/07/20 02:47:46;;;;;;;24.35;13.20;;;23.00;99.90;;;;;;5093276;28;20028;-75
2022/07/20 02:50:13;;;;;;;24.55;14.38;;;23.00;99.90;;;;;;5097634;28;20028;-75
2022/07/20 02:52:41;;;;;;;22.90;13.65;;;22.90;99.90;;;;;;5095663;28;20113;-75
2022/07/20 02:55:08;;;;;;;22.83;13.32;;;22.80;99.90;;;;;;5091178;28;20016;-74
2022/07/20 02:57:34;;;;;;;33.13;15.00;;;22.80;99.90;;;;;;5087258;28;20017;-74
2022/07/20 03:00:00;;;;;;;20.88;14.10;;;22.80;99.90;;;;;;5087835;28;20016;-74
2022/07/20 03:02:25;;;;;;;20.40;13.00;;;22.80;99.90;;;;;;5097353;28;20083;-74
2022/07/20 03:04:51;;;;;;;27.73;13.02;;;22.80;99.90;;;;;;5097461;28;20112;-75
2022/07/20 03:07:18;;;;;;;21.23;12.95;;;22.70;99.90;;;;;;5095911;28;20107;-74
2022/07/20 03:09:44;;;;;;;21.52;12.65;;;22.70;99.90;;;;;;5096984;28;20081;-74
2022/07/20 03:12:10;;;;;;;20.90;12.70;;;22.70;99.90;;;;;;5083975;28;20021;-75
2022/07/20 03:14:36;;;;;;;20.92;12.40;;;22.70;99.90;;;;;;5089683;28;20028;-74
2022/07/20 03:17:02;;;;;;;21.95;12.50;;;22.60;99.90;;;;;;5082504;28;20008;-74
2022/07/20 03:19:27;;;;;;;17.23;11.55;;;22.60;99.90;;;;;;5086166;28;20032;-74
2022/07/20 03:21:53;;;;;;;20.38;11.60;;;22.60;99.90;;;;;;5080390;28;20017;-74
2022/07/20 03:24:19;;;;;;;23.05;11.95;;;22.60;99.90;;;;;;5095728;28;20154;-75
2022/07/20 03:26:45;;;;;;;24.63;12.90;;;22.50;99.90;;;;;;5092581;28;20349;-75
2022/07/20 03:29:11;;;;;;;19.58;12.65;;;22.50;99.90;;;;;;5093683;28;20024;-75
2022/07/20 03:31:36;;;;;;;22.67;10.85;;;22.50;99.90;;;;;;5088908;28;20070;-75
2022/07/20 03:34:02;;;;;;;21.05;11.07;;;22.50;99.90;;;;;;5092220;28;20020;-75
2022/07/20 03:36:28;;;;;;;19.88;10.80;;;22.50;99.90;;;;;;5096865;28;20047;-75
2022/07/20 03:38:54;;;;;;;19.98;10.43;;;22.50;99.90;;;;;;5096742;28;20027;-75
2022/07/20 03:41:20;;;;;;;23.30;11.38;;;22.40;99.90;;;;;;5088959;28;20024;-74
2022/07/20 03:43:46;;;;;;;19.08;10.10;;;22.50;99.90;;;;;;5086476;28;20035;-75
2022/07/20 03:46:12;;;;;;;17.98;8.77;;;22.40;99.90;;;;;;5087194;28;20017;-74
2022/07/20 03:48:38;;;;;;;19.73;8.98;;;22.40;99.90;;;;;;5083319;28;20025;-75
2022/07/20 03:51:04;;;;;;;21.88;7.88;;;22.50;99.90;;;;;;5085035;28;20512;-75
2022/07/20 03:53:30;;;;;;;16.45;7.93;;;22.40;99.90;;;;;;5081538;28;20017;-75
2022/07/20 03:55:56;;;;;;;14.73;8.30;;;22.40;99.90;;;;;;5081445;28;20024;-75
2022/07/20 03:58:21;;;;;;;16.70;7.00;;;22.40;99.90;;;;;;5089555;28;20028;-75
2022/07/20 04:00:47;;;;;;;10.90;6.28;;;22.40;99.90;;;;;;5098622;28;20024;-75
2022/07/20 04:03:13;;;;;;;15.73;6.03;;;22.40;99.90;;;;;;5098787;28;20028;-75
2022/07/20 04:05:39;;;;;;;12.68;5.78;;;22.40;99.90;;;;;;5093663;28;20052;-75
2022/07/20 04:08:08;;;;;;;11.75;5.10;;;22.40;99.90;;;;;;5094660;28;20023;-75
2022/07/20 04:10:35;;;;;;;14.20;6.32;;;22.40;99.90;;;;;;5095960;28;20024;-75
2022/07/20 04:13:03;;;;;;;7.85;5.20;;;22.50;99.90;;;;;;5089136;28;20021;-75
2022/07/20 04:15:29;;;;;;;15.48;7.28;;;22.40;99.90;;;;;;5086627;28;20017;-75
2022/07/20 04:17:55;;;;;;;14.75;7.10;;;22.40;99.90;;;;;;5085340;28;20024;-75
2022/07/20 04:20:21;;;;;;;14.55;6.82;;;22.40;99.90;;;;;;5083855;28;20016;-75
2022/07/20 04:22:47;;;;;;;15.63;7.07;;;22.30;99.90;;;;;;5092150;28;20039;-75
2022/07/20 04:25:12;;;;;;;11.85;5.95;;;22.30;99.90;;;;;;5081764;28;20021;-75
2022/07/20 04:27:38;;;;;;;15.38;5.57;;;22.30;99.90;;;;;;5078420;28;20061;-75
2022/07/20 04:30:05;;;;;;;12.80;5.47;;;22.30;99.90;;;;;;5096213;28;20499;-75
2022/07/20 04:32:31;;;;;;;9.35;5.70;;;22.30;99.90;;;;;;5095935;28;20470;-75
2022/07/20 04:34:57;;;;;;;14.68;6.45;;;22.30;99.90;;;;;;5096500;28;20085;-75
2022/07/20 04:37:23;;;;;;;11.70;5.88;;;22.30;99.90;;;;;;5095679;28;20065;-75
2022/07/20 04:39:49;;;;;;;9.52;4.63;;;22.30;99.90;;;;;;5089981;28;20894;-75
2022/07/20 04:42:15;;;;;;;14.20;4.70;;;22.20;99.90;;;;;;5093556;28;20039;-75
2022/07/20 04:44:41;;;;;;;9.52;4.50;;;22.30;99.90;;;;;;5097487;28;20024;-75
2022/07/20 04:47:06;;;;;;;18.55;5.97;;;22.20;99.90;;;;;;5090265;28;20024;-75
2022/07/20 04:49:32;;;;;;;13.35;5.78;;;22.20;99.90;;;;;;5089479;28;20024;-75
2022/07/20 04:51:58;;;;;;;15.00;6.75;;;22.20;99.90;;;;;;5089328;28;20103;-75
2022/07/20 04:54:24;;;;;;;13.63;7.05;;;22.20;99.90;;;;;;5093323;28;20043;-75
2022/07/20 04:56:50;;;;;;;17.52;5.88;;;22.20;99.90;;;;;;5081747;28;20078;-75
2022/07/20 04:59:16;;;;;;;9.23;4.40;;;22.20;99.90;;;;;;5094296;28;20017;-75
2022/07/20 05:01:42;;;;;;;16.98;5.28;;;22.20;99.90;;;;;;5079948;28;20104;-74
2022/07/20 05:04:08;;;;;;;8.07;4.63;;;22.20;99.90;;;;;;5082576;28;20016;-74
2022/07/20 05:06:34;;;;;;;16.85;5.20;;;22.20;99.90;;;;;;5097699;28;20020;-74
2022/07/20 05:09:00;;;;;;;10.35;5.07;;;22.20;99.90;;;;;;5096825;28;20039;-75
2022/07/20 05:11:29;;;;;;;12.07;4.47;;;22.20;99.90;;;;;;5097380;28;20103;-75
2022/07/20 05:13:55;;;;;;;13.50;5.03;;;22.20;99.90;;;;;;5089581;28;20024;-75
2022/07/20 05:16:21;;;;;;;7.63;5.03;;;22.20;99.90;;;;;;5088133;28;20020;-75
2022/07/20 05:18:47;;;;;;;7.65;4.95;;;22.10;99.90;;;;;;5083012;28;20025;-75
2022/07/20 05:21:13;;;;;;;8.80;3.92;;;22.10;99.90;;;;;;5081514;28;20024;-75
2022/07/20 05:23:39;;;;;;;10.18;3.40;;;22.10;99.90;;;;;;5080922;28;20024;-74
2022/07/20 05:26:04;;;;;;;6.88;4.03;;;22.10;99.90;;;;;;5089790;28;20027;-75
2022/07/20 05:28:31;;;;;;;10.18;4.60;;;22.00;99.90;;;;;;5083047;28;20078;-75
2022/07/20 05:30:57;;;;;;;12.00;3.90;;;22.00;99.90;;;;;;5096312;28;20107;-74
2022/07/20 05:33:23;;;;;;;8.45;3.85;;;22.00;99.90;;;;;;5095578;28;20060;-75
2022/07/20 05:35:49;;;;;;;9.20;4.28;;;22.00;99.90;;;;;;5095583;28;20016;-74
2022/07/20 05:38:16;;;;;;;10.25;4.15;;;22.10;99.90;;;;;;5090696;28;20031;-74
2022/07/20 05:40:42;;;;;;;10.23;4.60;;;22.10;99.90;;;;;;5098021;28;20016;-75
2022/07/20 05:43:08;;;;;;;11.07;4.57;;;22.10;99.90;;;;;;5096763;28;20024;-75
2022/07/20 05:45:34;;;;;;;11.95;5.22;;;22.10;99.90;;;;;;5096579;28;20496;-75
2022/07/20 05:48:00;;;;;;;15.18;5.22;;;22.10;99.90;;;;;;5096787;28;20063;-75
2022/07/20 05:50:26;;;;;;;12.68;5.45;;;22.20;99.90;;;;;;5091554;28;20023;-75
2022/07/20 05:52:52;;;;;;;10.57;4.72;;;22.10;99.90;;;;;;5085691;28;20028;-74
2022/07/20 05:55:18;;;;;;;10.48;4.93;;;22.20;99.90;;;;;;5087661;28;20023;-75
2022/07/20 05:57:44;;;;;;;12.60;4.57;;;22.20;99.90;;;;;;5091963;28;20024;-74
2022/07/20 06:00:11;;;;;;;11.63;5.07;;;22.20;99.90;;;;;;5091984;28;20115;-75
2022/07/20 06:02:36;;;;;;;11.70;4.55;;;22.20;99.90;;;;;;5090973;28;20040;-75
2022/07/20 06:05:02;;;;;;;9.65;4.25;;;22.10;99.90;;;;;;5079457;28;20043;-75
2022/07/20 06:07:28;;;;;;;8.93;4.85;;;22.10;99.90;;;;;;5079424;28;20023;-75
2022/07/20 06:09:54;;;;;;;10.90;5.30;;;22.10;99.90;;;;;;5077461;28;20025;-74
2022/07/20 06:12:20;;;;;;;15.30;5.85;;;22.20;99.90;;;;;;5094151;28;20035;-74
2022/07/20 06:14:46;;;;;;;12.15;5.35;;;22.20;99.90;;;;;;5097475;28;20840;-75
2022/07/20 06:17:12;;;;;;;13.27;4.93;;;22.20;99.90;;;;;;5088896;28;20021;-75
2022/07/20 06:19:38;;;;;;;10.82;4.95;;;22.20;99.90;;;;;;5092706;28;20016;-75
2022/07/20 06:22:04;;;;;;;14.75;5.00;;;22.20;99.90;;;;;;5086040;28;20051;-75
2022/07/20 06:24:29;;;;;;;15.13;6.03;;;22.20;99.90;;;;;;5095622;28;20104;-75
2022/07/20 06:26:55;;;;;;;10.80;5.00;;;22.20;99.90;;;;;;5091899;28;20029;-74
2022/07/20 06:29:21;;;;;;;12.25;4.90;;;22.30;99.90;;;;;;5085891;28;20016;-75
2022/07/20 06:31:47;;;;;;;10.70;4.35;;;22.30;99.90;;;;;;5095919;28;20396;-75
2022/07/20 06:34:13;;;;;;;11.80;4.40;;;22.40;99.90;;;;;;5084901;28;20020;-75
2022/07/20 06:36:39;;;;;;;10.07;5.00;;;22.50;99.90;;;;;;5080384;28;20023;-75
2022/07/20 06:39:05;;;;;;;8.55;4.05;;;22.50;99.90;;;;;;5078750;28;20020;-75
2022/07/20 06:41:31;;;;;;;13.45;7.00;;;22.50;99.90;;;;;;5078100;28;20027;-75
2022/07/20 06:43:57;;;;;;;12.00;7.80;;;22.50;99.90;;;;;;5088143;28;20051;-75
2022/07/20 06:46:23;;;;;;;17.77;10.30;;;22.60;99.90;;;;;;5094527;28;20107;-75
2022/07/20 06:48:49;;;;;;;19.00;12.30;;;22.60;99.90;;;;;;5095553;28;20028;-76
2022/07/20 06:51:14;;;;;;;28.30;13.32;;;22.60;99.90;;;;;;5091004;28;20089;-75
2022/07/20 06:53:40;;;;;;;28.98;14.23;;;22.50;99.90;;;;;;5095781;28;20035;-75
2022/07/20 06:56:06;;;;;;;23.10;12.68;;;22.50;99.90;;;;;;5085775;28;20017;-74
2022/07/20 06:58:32;;;;;;;22.35;12.07;;;22.40;99.90;;;;;;5094564;28;20376;-75
2022/07/20 07:00:58;;;;;;;22.85;13.98;;;22.40;99.90;;;;;;5091577;28;20024;-75
2022/07/20 07:03:24;;;;;;;21.13;12.48;;;22.40;99.90;;;;;;5092061;28;20403;-74
2022/07/20 07:05:49;;;;;;;31.88;14.93;;;22.50;99.90;;;;;;5081645;28;20035;-75
2022/07/20 07:08:15;;;;;;;23.63;14.68;;;22.50;99.90;;;;;;5092128;28;20495;-75
2022/07/20 07:10:41;;;;;;;28.15;13.30;;;22.50;99.90;;;;;;5083472;28;20024;-76
2022/07/20 07:13:07;;;;;;;26.67;13.55;;;22.60;99.90;;;;;;5082222;28;20035;-76
2022/07/20 07:15:33;;;;;;;26.10;14.02;;;22.50;99.90;;;;;;5097757;28;20016;-76
2022/07/20 07:17:59;;;;;;;24.27;12.18;;;22.60;99.90;;;;;;5099600;28;20016;-76
2022/07/20 07:20:24;;;;;;;20.65;12.18;;;22.60;99.90;;;;;;5097883;28;20400;-75
2022/07/20 07:22:50;;;;;;;19.02;11.98;;;22.70;99.90;;;;;;5099669;28;20028;-76
2022/07/20 07:25:16;;;;;;;26.45;11.35;;;22.80;99.90;;;;;;5092362;28;20073;-75
2022/07/20 07:27:42;;;;;;;19.35;12.50;;;22.90;99.90;;;;;;5099595;28;20134;-76
2022/07/20 07:30:08;;;;;;;22.00;11.95;;;23.00;99.90;;;;;;5089659;28;20036;-75
2022/07/20 07:32:34;;;;;;;20.30;11.07;;;23.10;99.90;;;;;;5098087;28;20112;-75
2022/07/20 07:35:01;;;;;;;23.45;11.10;;;23.00;99.90;;;;;;5088480;28;20044;-76
2022/07/20 07:37:27;;;;;;;21.23;10.82;;;22.90;99.90;;;;;;5088872;28;20020;-75
2022/07/20 07:39:53;;;;;;;17.33;10.30;;;23.00;99.90;;;;;;5085170;28;20481;-75
2022/07/20 07:42:20;;;;;;;17.88;8.57;;;23.00;99.90;;;;;;5094524;28;20054;-74
2022/07/20 07:44:46;;;;;;;22.48;10.13;;;23.00;99.90;;;;;;5082976;28;20043;-74
2022/07/20 07:47:11;;;;;;;19.80;9.43;;;23.00;99.90;;;;;;5090509;28;20401;-75
2022/07/20 07:49:37;;;;;;;20.10;10.82;;;23.10;99.90;;;;;;5095965;28;20070;-75
2022/07/20 07:52:03;;;;;;;19.33;9.15;;;23.20;99.90;;;;;;5095515;28;20044;-75
2022/07/20 07:54:29;;;;;;;16.30;8.80;;;23.20;99.90;;;;;;5089076;28;20021;-75
2022/07/20 07:56:55;;;;;;;18.85;9.25;;;23.30;99.90;;;;;;5092614;28;20016;-76
2022/07/20 07:59:21;;;;;;;19.42;8.65;;;23.50;99.90;;;;;;5086970;28;20389;-75
2022/07/20 08:01:47;;;;;;;17.20;8.25;;;23.60;99.90;;;;;;5082909;28;20016;-75
2022/07/20 08:04:13;;;;;;;12.82;7.85;;;23.70;99.90;;;;;;5085536;28;20028;-75
2022/07/20 08:06:38;;;;;;;18.33;7.80;;;23.70;99.90;;;;;;5084622;28;20043;-75
2022/07/20 08:09:04;;;;;;;19.88;7.70;;;23.70;99.90;;;;;;5098706;28;20020;-74
2022/07/20 08:11:31;;;;;;;15.00;7.20;;;23.70;99.90;;;;;;5098868;28;20028;-75
2022/07/20 08:13:56;;;;;;;15.32;6.90;;;23.70;99.90;;;;;;5081896;28;20020;-76
2022/07/20 08:16:22;;;;;;;13.88;6.20;;;23.90;99.90;;;;;;5092067;28;20020;-75
2022/07/20 08:18:48;;;;;;;10.73;5.60;;;23.90;99.90;;;;;;5097314;28;20107;-76
2022/07/20 08:21:14;;;;;;;7.57;3.92;;;24.00;99.90;;;;;;5096698;28;20101;-75
2022/07/20 08:23:40;;;;;;;8.00;3.20;;;24.00;99.90;;;;;;5092419;28;20021;-74
2022/07/20 08:26:06;;;;;;;7.80;3.47;;;24.00;99.90;;;;;;5098456;28;20027;-75
2022/07/20 08:28:31;;;;;;;8.88;2.95;;;24.00;99.90;;;;;;5093111;28;20030;-75
2022/07/20 08:31:00;;;;;;;8.90;3.20;;;24.10;99.90;;;;;;5092791;28;20051;-75
2022/07/20 08:33:26;;;;;;;10.80;3.45;;;24.30;99.90;;;;;;5097818;28;20091;-75
2022/07/20 08:35:51;;;;;;;11.95;3.20;;;24.40;99.90;;;;;;5090928;28;20515;-74
2022/07/20 08:38:17;;;;;;;10.00;3.22;;;24.50;99.90;;;;;;5084610;28;20023;-75
2022/07/20 08:40:43;;;;;;;11.25;3.85;;;24.80;99.30;;;;;;5084600;28;20504;-75
2022/07/20 08:43:10;;;;;;;11.57;3.53;;;24.90;99.70;;;;;;5081901;28;20021;-75
2022/07/20 08:45:36;;;;;;;7.75;3.45;;;25.00;99.30;;;;;;5080745;28;20097;-75
2022/07/20 08:48:08;;;;;;;9.77;4.13;;;25.10;99.00;;;;;;5095689;28;20024;-75
2022/07/20 08:50:34;;;;;;;11.27;3.92;;;25.00;98.70;;;;;;5093082;28;20120;-75
2022/07/20 08:53:00;;;;;;;12.77;4.65;;;25.20;98.80;;;;;;5088233;28;20558;-75
2022/07/20 08:55:27;;;;;;;10.82;4.45;;;25.10;98.90;;;;;;5093050;28;20537;-75
2022/07/20 08:57:53;;;;;;;12.57;3.65;;;25.20;98.80;;;;;;5085960;28;20024;-75
2022/07/20 09:00:20;;;;;;;7.72;3.08;;;25.10;98.40;;;;;;5089811;28;20020;-75
2022/07/20 09:03:02;;;;;;;8.18;2.80;;;25.00;98.30;;;;;;5082898;28;20021;-75
2022/07/20 09:05:32;;;;;;;9.77;3.10;;;24.90;98.20;;;;;;5085751;28;20016;-74
2022/07/20 09:07:59;;;;;;;;;;;24.90;98.30;;;;;;5090367;28;20495;-75
2022/07/20 09:10:28;;;;;;;9.50;3.55;;;25.10;98.60;;;;;;5081696;28;19904;-75
2022/07/20 09:13:03;;;;;;;6.70;3.27;;;25.10;98.00;;;;;;5088440;28;20028;-75
2022/07/20 09:15:37;;;;;;;8.90;3.47;;;25.20;98.00;;;;;;5097567;28;20099;-74
2022/07/20 09:18:06;;;;;;;12.05;4.57;;;25.40;97.60;;;;;;5085446;28;20024;-75
2022/07/20 09:20:33;;;;;;;10.48;4.28;;;25.30;98.10;;;;;;5097015;28;20046;-75
2022/07/20 09:23:04;;;;;;;7.05;3.30;;;25.30;97.90;;;;;;5097462;28;20107;-75
2022/07/20 09:25:30;;;;;;;10.27;3.45;;;25.40;97.10;;;;;;5094060;28;20028;-74
2022/07/20 09:27:57;;;;;;;8.63;3.22;;;25.50;97.20;;;;;;5092395;28;20024;-75
2022/07/20 09:30:23;;;;;;;8.38;4.43;;;25.50;96.80;;;;;;5086552;28;20086;-75
2022/07/20 09:32:59;;;;;;;12.77;3.75;;;25.60;96.60;;;;;;5089531;28;20492;-75
2022/07/20 09:35:34;;;;;;;11.80;4.80;;;25.70;97.10;;;;;;5084375;28;20020;-75
2022/07/20 09:38:04;;;;;;;11.48;4.80;;;25.90;96.70;;;;;;5093948;28;20025;-75
2022/07/20 09:40:45;;;;;;;8.10;3.63;;;26.10;96.60;;;;;;5082281;28;20439;-74
2022/07/20 09:43:34;;;;;;;10.05;4.45;;;26.30;95.80;;;;;;5086815;28;20069;-75
2022/07/20 09:46:13;;;;;;;7.90;4.55;;;26.30;95.30;;;;;;5097291;28;20032;-75
2022/07/20 09:48:51;;;;;;;10.63;5.07;;;26.40;95.30;;;;;;5079959;28;20024;-75
2022/07/20 09:51:37;;;;;;;8.85;5.53;;;26.40;95.10;;;;;;5097605;28;20036;-74
2022/07/20 09:54:11;;;;;;;9.52;4.72;;;26.20;95.10;;;;;;5096579;28;20020;-74
2022/07/20 09:56:39;;;;;;;10.25;5.05;;;26.20;95.20;;;;;;5096860;28;20142;-74
2022/07/20 09:59:07;;;;;;;11.68;5.35;;;26.10;95.60;;;;;;5096301;28;20031;-75
2022/07/20 10:01:38;;;;;;;9.73;5.00;;;26.10;95.40;;;;;;5096563;28;20095;-74
2022/07/20 10:04:05;;;;;;;;;;;26.40;95.50;;;;;;5094273;28;20032;-75
2022/07/20 10:06:32;;;;;;;9.82;5.32;;;26.60;94.80;;;;;;5076609;28;19904;-75
2022/07/20 10:08:58;;;;;;;12.70;5.30;;;26.50;94.10;;;;;;5089601;28;20484;-75
2022/07/20 10:11:25;;;;;;;18.80;4.95;;;26.60;94.90;;;;;;5091672;28;20027;-74
2022/07/20 10:13:53;;;;;;;13.75;6.05;;;27.00;94.50;;;;;;5087382;28;20028;-74
2022/07/20 10:16:37;;;;;;;7.57;5.43;;;27.30;94.20;;;;;;5083889;28;20066;-75
2022/07/20 10:19:05;;;;;;;13.45;5.60;;;27.20;93.10;;;;;;5089775;28;20032;-74
2022/07/20 10:21:38;;;;;;;7.18;4.60;;;27.00;94.30;;;;;;5095014;28;20103;-74
2022/07/20 10:24:27;;;;;;;7.82;4.88;;;27.10;94.10;;;;;;5088285;28;20032;-74
2022/07/20 10:26:56;;;;;;;10.40;4.95;;;27.00;92.90;;;;;;5078674;28;20445;-74
2022/07/20 10:29:27;;;;;;;9.05;5.95;;;27.10;93.20;;;;;;5077318;28;20031;-74
2022/07/20 10:32:16;;;;;;;8.00;5.25;;;26.80;93.00;;;;;;5095954;28;20024;-74
2022/07/20 10:34:46;;;;;;;8.80;5.43;;;26.70;93.20;;;;;;5093817;28;20488;-75
2022/07/20 10:37:40;;;;;;;11.43;5.47;;;26.80;94.90;;;;;;5094823;28;20027;-74
2022/07/20 10:40:12;;;;;;;9.60;5.20;;;27.10;93.60;;;;;;5093121;28;20024;-74
2022/07/20 10:42:42;;;;;;;9.23;5.57;;;27.00;93.10;;;;;;5091161;28;20073;-75
2022/07/20 10:45:15;;;;;;;;;;;26.90;93.40;;;;;;5093215;28;20119;-75
2022/07/20 10:47:51;;;;;;;13.48;5.35;;;27.10;93.60;;;;;;5093094;28;19908;-74
2022/07/20 10:50:28;;;;;;;11.43;5.38;;;27.40;93.30;;;;;;5086617;28;20060;-76
2022/07/20 10:52:57;;;;;;;13.68;6.20;;;27.60;92.90;;;;;;5083410;28;20047;-74
2022/07/20 10:55:34;;;;;;;;;;;27.50;93.20;;;;;;5077236;28;20044;-75
2022/07/20 10:58:04;;;;;;;8.63;5.03;;;27.50;92.70;;;;;;5097129;28;19904;-75
2022/07/20 11:00:32;;;;;;;15.93;6.13;;;27.30;92.30;;;;;;5089542;28;20369;-76
2022/07/20 11:02:59;;;;;;;11.13;5.38;;;27.30;93.10;;;;;;5096904;28;20507;-75
2022/07/20 11:05:25;;;;;;;12.40;5.70;;;27.30;92.40;;;;;;5096701;28;20031;-75
2022/07/20 11:07:50;;;;;;;11.00;5.93;;;27.10;92.50;;;;;;5095720;28;20028;-75
2022/07/20 11:10:35;;;;;;;10.32;6.03;;;27.40;93.20;;;;;;5095283;28;20169;-75
2022/07/20 11:13:08;;;;;;;11.48;6.22;;;27.50;92.50;;;;;;5080718;28;20051;-76
2022/07/20 11:15:45;;;;;;;11.75;6.13;;;27.60;92.30;;;;;;5080557;28;20016;-74
2022/07/20 11:18:13;;;;;;;9.93;5.88;;;27.70;92.10;;;;;;5089570;28;20024;-74
2022/07/20 11:20:48;;;;;;;9.38;5.28;;;27.60;91.80;;;;;;5082278;28;20020;-74
2022/07/20 11:23:16;;;;;;;10.90;5.95;;;27.30;92.00;;;;;;5093808;28;20076;-75
2022/07/20 11:26:00;;;;;;;13.20;5.80;;;27.30;93.00;;;;;;5094591;28;20020;-74
2022/07/20 11:28:31;;;;;;;10.45;6.18;;;27.40;92.10;;;;;;5091573;28;20035;-74
2022/07/20 11:30:59;;;;;;;11.85;5.85;;;27.40;93.10;;;;;;5095559;28;20031;-75
2022/07/20 11:33:33;;;;;;;11.98;4.70;;;27.60;92.90;;;;;;5085189;28;20021;-74
2022/07/20 11:36:02;;;;;;;9.60;5.68;;;27.50;92.30;;;;;;5082816;28;20020;-74
2022/07/20 11:38:42;;;;;;;10.15;6.07;;;27.20;92.20;;;;;;5088529;28;20024;-74
2022/07/20 11:41:11;;;;;;;15.33;6.00;;;27.20;93.00;;;;;;5080799;28;20024;-74
2022/07/20 11:43:38;;;;;;;12.27;4.90;;;27.30;92.60;;;;;;5080202;28;20291;-74
2022/07/20 11:46:15;;;;;;;9.57;4.38;;;27.20;92.40;;;;;;5081084;28;20125;-74
2022/07/20 11:48:43;;;;;;;10.30;5.35;;;27.00;92.40;;;;;;5077524;28;20056;-75
2022/07/20 11:51:10;;;;;;;13.63;6.13;;;27.00;91.70;;;;;;5094538;28;20048;-75
2022/07/20 11:53:39;;;;;;;9.27;4.47;;;27.00;92.00;;;;;;5096052;28;20055;-74
2022/07/20 11:56:11;;;;;;;12.30;5.43;;;27.00;92.30;;;;;;5096523;28;20447;-76
2022/07/20 11:58:39;;;;;;;10.43;5.32;;;27.20;92.10;;;;;;5098486;28;20091;-74
2022/07/20 12:01:09;;;;;;;12.82;5.97;;;27.20;91.20;;;;;;5096590;28;20076;-75
2022/07/20 12:03:39;;;;;;;12.48;5.53;;;27.40;91.80;;;;;;5097762;28;20017;-75
2022/07/20 12:06:08;;;;;;;12.90;5.82;;;27.70;91.60;;;;;;5090952;28;20481;-74
2022/07/20 12:08:34;;;;;;;9.15;5.18;;;28.10;91.10;;;;;;5097152;28;20032;-74
2022/07/20 12:11:01;;;;;;;12.40;6.43;;;28.10;91.10;;;;;;5091999;28;20032;-75
2022/07/20 12:13:27;;;;;;;11.48;6.70;;;27.90;90.70;;;;;;5098178;28;20024;-75
2022/07/20 12:16:02;;;;;;;12.65;6.05;;;27.90;91.90;;;;;;5093349;28;20024;-75
2022/07/20 12:18:36;;;;;;;12.90;5.57;;;28.00;91.10;;;;;;5093712;28;20559;-76
2022/07/20 12:21:04;;;;;;;11.15;5.85;;;28.10;91.60;;;;;;5089327;28;20025;-75
2022/07/20 12:23:31;;;;;;;11.43;5.68;;;28.20;90.80;;;;;;5095382;28;20051;-75
2022/07/20 12:25:57;;;;;;;18.67;6.28;;;28.20;90.50;;;;;;5097829;28;20024;-75
2022/07/20 12:28:30;;;;;;;12.52;5.65;;;28.10;90.80;;;;;;5096866;28;20027;-75
2022/07/20 12:31:14;;;;;;;12.07;5.80;;;27.90;90.90;;;;;;5095366;28;20032;-74
2022/07/20 12:34:19;;;;;;;14.63;5.72;;;28.10;91.20;;;;;;5093529;28;20021;-74
2022/07/20 12:36:49;;;;;;;14.20;6.07;;;28.40;91.10;;;;;;5086010;28;20032;-74
2022/07/20 12:39:41;;;;;;;13.38;6.25;;;29.00;90.50;;;;;;5084950;28;20043;-74
2022/07/20 12:42:19;;;;;;;9.57;5.82;;;28.70;89.60;;;;;;5077039;28;20037;-73
2022/07/20 12:44:49;;;;;;;13.60;5.82;;;28.50;90.00;;;;;;5089301;28;20035;-74